sensor_id;sensor_type;location;lat;lon;timestamp;P1;P2;P0
47711;PMS7003;57457;51.634;5.886;2023-08-20T00:08:29;13.21;15.05;11.24
47711;PMS7003;57457;51.634;5.886;2023-08-20T00:21:49;19.57;19.08;13.42
47711;PMS7003;57457;51.634;5.886;2023-08-20T00:35:09;16.81;17.78;12.65
47711;PMS7003;57457;51.634;5.886;2023-08-20T00:48:28;18.25;18.32;12.98
47711;PMS7003;57457;51.634;5.886;2023-08-20T01:01:48;25.57;21.92;15.38
47711;PMS7003;57457;51.634;5.886;2023-08-20T01:15:07;27.49;22.57;15.6
47711;PMS7003;57457;51.634;5.886;2023-08-20T01:28:27;24.13;21.7;15.38
47711;PMS7003;57457;51.634;5.886;2023-08-20T01:41:47;24.37;22.03;15.49
47711;PMS7003;57457;51.634;5.886;2023-08-20T01:55:06;26.17;22.03;15.6
47711;PMS7003;57457;51.634;5.886;2023-08-20T02:08:26;22.09;20.5;14.51
47711;PMS7003;57457;51.634;5.886;2023-08-20T02:21:46;21.37;19.96;13.74
47711;PMS7003;57457;51.634;5.886;2023-08-20T02:35:05;22.81;21.05;14.72
47711;PMS7003;57457;51.634;5.886;2023-08-20T02:48:25;20.89;19.52;13.85
47711;PMS7003;57457;51.634;5.886;2023-08-20T03:01:44;19.69;18.65;12.98
47711;PMS7003;57457;51.634;5.886;2023-08-20T03:15:04;21.25;17.78;12.54
47711;PMS7003;57457;51.634;5.886;2023-08-20T03:28:24;16.81;17.67;12.54
47711;PMS7003;57457;51.634;5.886;2023-08-20T03:41:43;19.09;18.76;12.98
47711;PMS7003;57457;51.634;5.886;2023-08-20T03:55:03;14.17;15.92;11.56
47711;PMS7003;57457;51.634;5.886;2023-08-20T04:08:23;16.93;14.29;10.91
47711;PMS7003;57457;51.634;5.886;2023-08-20T04:21:42;16.33;17.23;12.44
47711;PMS7003;57457;51.634;5.886;2023-08-20T04:35:02;17.17;17.99;12.87
47711;PMS7003;57457;51.634;5.886;2023-08-20T04:48:21;11.53;13.63;10.26
47711;PMS7003;57457;51.634;5.886;2023-08-20T05:01:41;11.89;12.98;9.82
47711;PMS7003;57457;51.634;5.886;2023-08-20T05:15:01;11.89;13.63;10.15
47711;PMS7003;57457;51.634;5.886;2023-08-20T05:28:20;17.65;17.01;12.33
47711;PMS7003;57457;51.634;5.886;2023-08-20T05:41:40;17.41;17.34;12.22
47711;PMS7003;57457;51.634;5.886;2023-08-20T05:54:59;20.29;19.52;13.42
47711;PMS7003;57457;51.634;5.886;2023-08-20T06:08:19;26.17;22.35;15.27
47711;PMS7003;57457;51.634;5.886;2023-08-20T06:21:39;39.98;32.71;25.19
47711;PMS7003;57457;51.634;5.886;2023-08-20T06:34:58;72.4;63.6;48.8
47711;PMS7003;57457;51.634;5.886;2023-08-20T06:48:18;35.54;28.57;21.05
47711;PMS7003;57457;51.634;5.886;2023-08-20T07:01:38;29.05;24.75;17.67
47711;PMS7003;57457;51.634;5.886;2023-08-20T07:28:17;12.25;10.36;7.42
47711;PMS7003;57457;51.634;5.886;2023-08-20T07:41:36;10.33;10.15;6.88
47711;PMS7003;57457;51.634;5.886;2023-08-20T07:54:56;10.81;8.62;5.79
47711;PMS7003;57457;51.634;5.886;2023-08-20T08:08:16;6.49;7.97;5.57
47711;PMS7003;57457;51.634;5.886;2023-08-20T08:21:35;6.25;8.18;5.02
47711;PMS7003;57457;51.634;5.886;2023-08-20T08:34:55;6.37;7.64;5.13
47711;PMS7003;57457;51.634;5.886;2023-08-20T08:48:15;5.05;7.64;5.35
47711;PMS7003;57457;51.634;5.886;2023-08-20T09:01:34;5.41;6.0;4.04
47711;PMS7003;57457;51.634;5.886;2023-08-20T09:14:54;6.25;7.53;5.24
47711;PMS7003;57457;51.634;5.886;2023-08-20T09:28:13;5.41;6.33;4.15
47711;PMS7003;57457;51.634;5.886;2023-08-20T09:41:33;0.12;2.84;1.97
47711;PMS7003;57457;51.634;5.886;2023-08-20T09:54:53;2.4;2.95;1.97
47711;PMS7003;57457;51.634;5.886;2023-08-20T10:08:12;0.01;2.41;1.64
47711;PMS7003;57457;51.634;5.886;2023-08-20T10:34:52;0.01;1.54;1.21
47711;PMS7003;57457;51.634;5.886;2023-08-20T10:48:11;0.48;1.97;1.21
47711;PMS7003;57457;51.634;5.886;2023-08-20T11:01:31;0.01;1.21;1.21
47711;PMS7003;57457;51.634;5.886;2023-08-20T11:14:50;0.24;1.21;
47711;PMS7003;57457;51.634;5.886;2023-08-20T11:28:10;0.01;1.32;
47711;PMS7003;57457;51.634;5.886;2023-08-20T11:41:30;0.01;1.21;
47711;PMS7003;57457;51.634;5.886;2023-08-20T11:54:49;0.01;1.32;
47711;PMS7003;57457;51.634;5.886;2023-08-20T12:08:09;0.01;1.21;
47711;PMS7003;57457;51.634;5.886;2023-08-20T12:21:29;0.01;1.32;
47711;PMS7003;57457;51.634;5.886;2023-08-20T13:01:27;;;
47711;PMS7003;57457;51.634;5.886;2023-08-20T13:28:07;0.01;1.32;
47711;PMS7003;57457;51.634;5.886;2023-08-20T13:41:26;0.01;1.32;
47711;PMS7003;57457;51.634;5.886;2023-08-20T13:54:46;0.01;1.21;
47711;PMS7003;57457;51.634;5.886;2023-08-20T14:08:06;0.01;1.21;
47711;PMS7003;57457;51.634;5.886;2023-08-20T14:34:45;0.01;1.32;
47711;PMS7003;57457;51.634;5.886;2023-08-20T14:48:04;0.01;1.32;
47711;PMS7003;57457;51.634;5.886;2023-08-20T15:01:24;0.01;1.43;
47711;PMS7003;57457;51.634;5.886;2023-08-20T15:14:44;0.01;;
47711;PMS7003;57457;51.634;5.886;2023-08-20T15:28:03;1.08;1.86;
47711;PMS7003;57457;51.634;5.886;2023-08-20T15:41:23;0.01;1.43;
47711;PMS7003;57457;51.634;5.886;2023-08-20T16:08:02;0.01;1.54;
47711;PMS7003;57457;51.634;5.886;2023-08-20T16:21:22;0.01;1.43;
47711;PMS7003;57457;51.634;5.886;2023-08-20T16:34:41;0.01;1.43;
47711;PMS7003;57457;51.634;5.886;2023-08-20T16:48:01;0.01;1.54;
47711;PMS7003;57457;51.634;5.886;2023-08-20T17:01:21;0.01;1.64;
47711;PMS7003;57457;51.634;5.886;2023-08-20T17:14:40;0.01;1.21;
47711;PMS7003;57457;51.634;5.886;2023-08-20T17:28:00;0.01;1.75;
47711;PMS7003;57457;51.634;5.886;2023-08-20T17:41:19;0.01;1.54;
47711;PMS7003;57457;51.634;5.886;2023-08-20T17:54:39;0.01;1.54;1.21
47711;PMS7003;57457;51.634;5.886;2023-08-20T18:07:59;0.24;1.54;
47711;PMS7003;57457;51.634;5.886;2023-08-20T18:21:18;0.01;1.97;1.21
47711;PMS7003;57457;51.634;5.886;2023-08-20T18:34:38;2.28;2.3;
47711;PMS7003;57457;51.634;5.886;2023-08-20T18:47:57;0.01;1.86;1.21
47711;PMS7003;57457;51.634;5.886;2023-08-20T19:01:17;0.84;2.3;1.54
47711;PMS7003;57457;51.634;5.886;2023-08-20T19:14:37;0.0;2.62;1.54
47711;PMS7003;57457;51.634;5.886;2023-08-20T19:27:56;1.44;3.06;1.86
47711;PMS7003;57457;51.634;5.886;2023-08-20T19:41:16;0.01;2.41;1.75
47711;PMS7003;57457;51.634;5.886;2023-08-20T19:54:36;2.28;3.17;2.3
47711;PMS7003;57457;51.634;5.886;2023-08-20T20:07:55;1.08;3.39;2.52
47711;PMS7003;57457;51.634;5.886;2023-08-20T20:21:15;1.44;3.71;2.41
47711;PMS7003;57457;51.634;5.886;2023-08-20T20:34:34;1.68;2.73;2.19
47711;PMS7003;57457;51.634;5.886;2023-08-20T20:47:54;0.01;2.41;1.64
47711;PMS7003;57457;51.634;5.886;2023-08-20T21:01:14;0.6;2.08;1.54
47711;PMS7003;57457;51.634;5.886;2023-08-20T21:14:33;1.08;2.62;1.64
47711;PMS7003;57457;51.634;5.886;2023-08-20T21:27:53;0.01;2.62;1.64
47711;PMS7003;57457;51.634;5.886;2023-08-20T21:41:13;0.01;3.06;1.75
47711;PMS7003;57457;51.634;5.886;2023-08-20T21:54:32;0.48;3.28;2.08
47711;PMS7003;57457;51.634;5.886;2023-08-20T22:07:52;1.92;3.5;2.19
47711;PMS7003;57457;51.634;5.886;2023-08-20T22:21:11;0.01;2.95;2.08
47711;PMS7003;57457;51.634;5.886;2023-08-20T22:47:51;0.24;2.84;1.75
47711;PMS7003;57457;51.634;5.886;2023-08-20T23:01:10;1.44;3.17;2.08
47711;PMS7003;57457;51.634;5.886;2023-08-20T23:14:30;0.01;2.84;2.08
47711;PMS7003;57457;51.634;5.886;2023-08-20T23:27:50;2.16;4.59;3.06
47711;PMS7003;57457;51.634;5.886;2023-08-20T23:41:09;2.52;4.37;2.95
47711;PMS7003;57457;51.634;5.886;2023-08-20T23:54:29;1.8;3.82;2.73
